Time;durP1;ratioP1;P1;durP2;ratioP2;P2;SDS_P1;SDS_P2;PMS_P1;PMS_P2;Temp;Humidity;BMP_temperature;BMP_pressure;BME280_temperature;BME280_humidity;BME280_pressure;Samples;Min_cycle;Max_cycle;Signal;HPM_P1;HPM_P2
2022/02/28 00:01:22;;;;;;;13.17;6.47;;;2.20;99.90;;;;;;5097866;28;20449;-64
2022/02/28 00:03:50;;;;;;;10.00;7.17;;;2.20;99.90;;;;;;5097314;28;20468;-55
2022/02/28 00:06:17;;;;;;;18.87;6.40;;;2.20;99.90;;;;;;5096931;28;20455;-57
2022/02/28 00:08:44;;;;;;;12.40;5.90;;;2.30;99.90;;;;;;5097307;28;20450;-59
2022/02/28 00:11:10;;;;;;;19.67;7.60;;;2.20;99.90;;;;;;5097994;28;20426;-57
2022/02/28 00:13:37;;;;;;;18.43;8.53;;;2.20;99.90;;;;;;5097706;28;20423;-63
2022/02/28 00:16:05;;;;;;;15.13;7.20;;;2.20;99.90;;;;;;5097005;28;20958;-62
2022/02/28 00:18:32;;;;;;;18.53;7.23;;;2.20;99.90;;;;;;5096763;28;20508;-58
2022/02/28 00:21:03;;;;;;;15.80;8.27;;;2.20;99.90;;;;;;5104842;22;20525;-53
2022/02/28 00:23:30;;;;;;;16.90;6.17;;;2.60;99.90;;;;;;5077253;28;20467;-52
2022/02/28 00:25:57;;;;;;;14.07;6.83;;;2.10;99.90;;;;;;5077599;28;20427;-53
2022/02/28 00:28:24;;;;;;;16.60;6.73;;;2.20;99.90;;;;;;5077946;28;20523;-53
2022/02/28 00:30:51;;;;;;;16.27;7.90;;;2.10;99.90;;;;;;5077687;28;20428;-58
2022/02/28 00:33:19;;;;;;;11.27;6.33;;;2.50;99.90;;;;;;5077769;28;20456;-53
2022/02/28 00:35:46;;;;;;;15.50;8.17;;;2.10;99.90;;;;;;5077258;28;20529;-57
2022/02/28 00:38:14;;;;;;;12.30;7.10;;;2.10;99.90;;;;;;5077680;28;20483;-54
2022/02/28 00:40:41;;;;;;;9.03;4.87;;;2.10;99.90;;;;;;5077201;28;20474;-60
2022/02/28 00:43:07;;;;;;;28.37;7.43;;;2.10;99.90;;;;;;5077405;28;20455;-54
2022/02/28 00:45:34;;;;;;;12.70;6.53;;;2.20;99.90;;;;;;5077580;28;20471;-50
2022/02/28 00:48:01;;;;;;;16.20;6.97;;;2.20;99.90;;;;;;5076738;28;20439;-54
2022/02/28 00:50:30;;;;;;;12.83;7.87;;;2.20;99.90;;;;;;5077292;28;20419;-45
2022/02/28 00:52:56;;;;;;;14.10;7.83;;;2.20;99.90;;;;;;5077063;28;20439;-53
2022/02/28 00:55:25;;;;;;;20.67;8.50;;;2.30;99.90;;;;;;5077042;28;20459;-52
2022/02/28 00:57:51;;;;;;;16.73;8.17;;;2.30;99.90;;;;;;5077131;28;20502;-53
2022/02/28 01:00:22;;;;;;;13.73;7.97;;;2.20;99.90;;;;;;5076883;28;20477;-52
2022/02/28 01:02:49;;;;;;;15.33;9.10;;;2.20;99.90;;;;;;5076773;28;20459;-51
2022/02/28 01:05:19;;;;;;;22.30;10.53;;;2.10;99.90;;;;;;5076635;28;20475;-55
2022/02/28 01:07:46;;;;;;;17.43;7.70;;;2.10;99.90;;;;;;5077100;28;20439;-54
2022/02/28 01:10:14;;;;;;;14.83;8.40;;;2.10;99.90;;;;;;5076653;28;20436;-54
2022/02/28 01:12:43;;;;;;;16.07;9.17;;;2.20;99.90;;;;;;5076974;28;20434;-52
2022/02/28 01:15:11;;;;;;;17.97;9.10;;;2.20;99.90;;;;;;5076500;28;20443;-53
2022/02/28 01:17:38;;;;;;;20.33;8.63;;;2.20;99.90;;;;;;5076347;28;20431;-56
2022/02/28 01:20:06;;;;;;;12.60;5.80;;;2.20;99.90;;;;;;5077268;28;20557;-48
2022/02/28 01:22:33;;;;;;;15.83;8.23;;;2.20;99.90;;;;;;5076522;28;20467;-53
2022/02/28 01:25:00;;;;;;;22.60;9.87;;;2.20;99.90;;;;;;5076054;28;20493;-55
2022/02/28 01:27:27;;;;;;;20.60;8.80;;;2.20;99.90;;;;;;5076599;28;20449;-50
2022/02/28 01:29:55;;;;;;;19.27;7.93;;;2.30;99.90;;;;;;5077247;28;20443;-49
2022/02/28 01:32:21;;;;;;;24.43;9.30;;;2.30;99.90;;;;;;5076518;28;20451;-57
2022/02/28 01:34:48;;;;;;;26.50;11.40;;;2.30;99.90;;;;;;5076441;28;20463;-53
2022/02/28 01:37:14;;;;;;;20.17;8.70;;;2.30;99.90;;;;;;5076681;28;20416;-54
2022/02/28 01:39:44;;;;;;;20.40;9.07;;;2.30;99.90;;;;;;5076042;28;20513;-51
2022/02/28 01:42:10;;;;;;;20.27;8.33;;;2.30;99.90;;;;;;5075839;28;20494;-46
2022/02/28 01:44:37;;;;;;;13.90;8.53;;;2.30;99.90;;;;;;5075945;28;20497;-53
2022/02/28 01:47:05;;;;;;;21.30;10.20;;;2.40;99.90;;;;;;5076312;28;20439;-53
2022/02/28 01:49:32;;;;;;;23.73;9.10;;;2.40;99.90;;;;;;5076010;28;20444;-56
2022/02/28 01:52:01;;;;;;;20.43;9.80;;;2.40;99.90;;;;;;5076316;28;20494;-54
2022/02/28 01:54:28;;;;;;;25.17;9.90;;;2.40;99.90;;;;;;5076715;28;20474;-51
2022/02/28 01:56:55;;;;;;;18.90;8.90;;;2.40;99.90;;;;;;5076296;28;20493;-53
2022/02/28 01:59:25;;;;;;;22.80;9.17;;;2.50;99.90;;;;;;5074856;28;20483;-47
2022/02/28 02:01:51;;;;;;;25.27;9.57;;;2.50;99.90;;;;;;5076406;28;20469;-51
2022/02/28 02:04:19;;;;;;;25.10;10.53;;;2.50;99.90;;;;;;5075774;28;20442;-52
2022/02/28 02:06:48;;;;;;;28.40;11.70;;;2.50;99.90;;;;;;5076021;28;20447;-56
2022/02/28 02:09:16;;;;;;;22.87;9.10;;;2.50;99.90;;;;;;5076291;28;20439;-57
2022/02/28 02:11:43;;;;;;;17.43;7.77;;;2.50;99.90;;;;;;5075998;28;20503;-52
2022/02/28 02:14:11;;;;;;;24.93;11.00;;;2.50;99.90;;;;;;5076324;28;20481;-57
2022/02/28 02:16:38;;;;;;;25.10;9.47;;;2.50;99.90;;;;;;5075885;28;20424;-46
2022/02/28 02:19:06;;;;;;;19.37;8.67;;;2.40;99.90;;;;;;5075584;28;20487;-51
2022/02/28 02:21:34;;;;;;;26.67;9.60;;;2.50;99.90;;;;;;5075338;28;20474;-49
2022/02/28 02:24:01;;;;;;;20.17;9.10;;;2.50;99.90;;;;;;5075738;28;20477;-52
2022/02/28 02:26:28;;;;;;;20.90;8.40;;;2.50;99.90;;;;;;5075241;28;20465;-49
2022/02/28 02:28:56;;;;;;;18.63;9.03;;;2.50;99.90;;;;;;5075282;28;20427;-47
2022/02/28 02:31:23;;;;;;;17.70;7.90;;;2.50;99.90;;;;;;5075619;28;20469;-51
2022/02/28 02:33:51;;;;;;;20.10;9.87;;;2.50;99.90;;;;;;5075243;28;20435;-48
2022/02/28 02:36:18;;;;;;;17.67;8.70;;;2.50;99.90;;;;;;5075087;28;20412;-52
2022/02/28 02:38:47;;;;;;;19.53;10.10;;;2.50;99.90;;;;;;5074994;28;20479;-56
2022/02/28 02:41:13;;;;;;;20.57;11.67;;;2.40;99.90;;;;;;5075613;28;20494;-51
2022/02/28 02:43:40;;;;;;;15.30;6.80;;;2.40;99.90;;;;;;5075332;28;20477;-53
2022/02/28 02:46:07;;;;;;;19.37;8.10;;;2.40;99.90;;;;;;5075443;28;20490;-50
2022/02/28 02:48:34;;;;;;;19.50;9.03;;;2.40;99.90;;;;;;5075623;28;20470;-50
2022/02/28 02:51:01;;;;;;;17.60;9.77;;;2.40;99.90;;;;;;5075474;28;20440;-47
2022/02/28 02:53:27;;;;;;;18.23;9.40;;;2.40;99.90;;;;;;5074964;28;20455;-51
2022/02/28 02:55:55;;;;;;;13.60;8.20;;;2.40;99.90;;;;;;5074984;28;20459;-49
2022/02/28 02:58:25;;;;;;;22.10;9.73;;;2.40;99.90;;;;;;5075407;28;20525;-53
2022/02/28 03:00:53;;;;;;;20.30;10.47;;;2.40;99.90;;;;;;5075421;28;20482;-53
2022/02/28 03:03:22;;;;;;;23.10;9.00;;;2.40;99.90;;;;;;5075096;28;20500;-49
2022/02/28 03:05:49;;;;;;;17.70;9.10;;;2.40;99.90;;;;;;5075015;28;20442;-49
2022/02/28 03:08:18;;;;;;;20.43;9.07;;;2.30;99.90;;;;;;5074937;28;20505;-54
2022/02/28 03:10:45;;;;;;;20.57;9.23;;;2.40;99.90;;;;;;5076565;28;20419;-49
2022/02/28 03:13:13;;;;;;;23.23;9.20;;;2.40;99.90;;;;;;5078923;28;20453;-50
2022/02/28 03:15:40;;;;;;;16.77;8.73;;;2.40;99.90;;;;;;5078627;28;20423;-52
2022/02/28 03:18:06;;;;;;;26.70;8.10;;;2.40;99.90;;;;;;5079344;28;20455;-48
2022/02/28 03:20:35;;;;;;;22.23;8.20;;;2.40;99.90;;;;;;5078571;28;20454;-50
2022/02/28 03:23:02;;;;;;;17.90;7.70;;;2.40;99.90;;;;;;5078608;28;20423;-54
2022/02/28 03:25:28;;;;;;;15.50;7.43;;;2.50;99.90;;;;;;5078822;28;20459;-51
2022/02/28 03:27:55;;;;;;;14.23;6.83;;;2.40;99.90;;;;;;5078291;28;20931;-49
2022/02/28 03:30:25;;;;;;;16.70;10.17;;;2.40;99.90;;;;;;5079296;28;20427;-59
2022/02/28 03:32:51;;;;;;;24.07;9.43;;;2.40;99.90;;;;;;5078497;28;20439;-55
2022/02/28 03:35:18;;;;;;;23.53;10.40;;;2.40;99.90;;;;;;5078491;28;20469;-48
2022/02/28 03:37:44;;;;;;;23.13;10.13;;;2.40;99.90;;;;;;5078834;28;20447;-55
2022/02/28 03:40:12;;;;;;;29.30;9.97;;;2.40;99.90;;;;;;5078648;28;20498;-51
2022/02/28 03:42:39;;;;;;;15.30;8.37;;;2.40;99.90;;;;;;5078594;28;20440;-55
2022/02/28 03:45:07;;;;;;;28.80;11.83;;;2.40;99.90;;;;;;5078766;28;20448;-51
2022/02/28 03:47:35;;;;;;;19.97;11.07;;;2.40;99.90;;;;;;5078369;28;20451;-49
2022/02/28 03:50:03;;;;;;;23.27;8.90;;;2.40;99.90;;;;;;5078752;28;20457;-56
2022/02/28 03:52:30;;;;;;;20.53;9.80;;;2.40;99.90;;;;;;5078440;28;20542;-57
2022/02/28 03:54:56;;;;;;;24.67;10.47;;;2.40;99.90;;;;;;5077875;28;20443;-46
2022/02/28 03:57:27;;;;;;;22.83;9.50;;;2.40;99.90;;;;;;5078229;28;20431;-49
2022/02/28 03:59:53;;;;;;;25.43;10.17;;;2.40;99.90;;;;;;5077890;28;20481;-53
2022/02/28 04:02:20;;;;;;;27.53;10.77;;;2.40;99.90;;;;;;5078247;28;20442;-50
2022/02/28 04:04:48;;;;;;;26.37;10.80;;;2.40;99.90;;;;;;5078254;28;20466;-49
2022/02/28 04:07:15;;;;;;;27.40;10.77;;;2.40;99.90;;;;;;5077668;28;20462;-52
2022/02/28 04:09:45;;;;;;;22.83;11.10;;;2.30;99.90;;;;;;5078107;28;20434;-53
2022/02/28 04:12:12;;;;;;;20.37;10.30;;;2.30;99.90;;;;;;5077950;28;20431;-45
2022/02/28 04:14:39;;;;;;;25.73;12.20;;;2.30;99.90;;;;;;5078271;28;20481;-52
2022/02/28 04:17:06;;;;;;;30.23;13.07;;;2.30;99.90;;;;;;5077837;28;20440;-52
2022/02/28 04:19:33;;;;;;;28.20;11.73;;;2.30;99.90;;;;;;5077552;28;20510;-53
2022/02/28 04:22:01;;;;;;;24.27;10.00;;;2.30;99.90;;;;;;5077006;28;20416;-53
2022/02/28 04:24:28;;;;;;;15.70;8.53;;;2.40;99.90;;;;;;5077603;28;20504;-52
2022/02/28 04:26:54;;;;;;;26.40;11.73;;;2.30;99.90;;;;;;5077756;28;20471;-50
2022/02/28 04:29:22;;;;;;;26.60;10.57;;;2.30;99.90;;;;;;5078072;28;20458;-50
2022/02/28 04:31:49;;;;;;;27.73;10.43;;;2.20;99.90;;;;;;5077311;28;20440;-50
2022/02/28 04:34:16;;;;;;;28.20;12.13;;;2.20;99.90;;;;;;5078161;28;20455;-48
2022/02/28 04:36:43;;;;;;;27.13;10.00;;;2.20;99.90;;;;;;5077589;28;20447;-54
2022/02/28 04:39:11;;;;;;;21.40;11.20;;;2.20;99.90;;;;;;5077155;28;20774;-52
2022/02/28 04:41:39;;;;;;;22.60;11.33;;;2.10;99.90;;;;;;5077185;28;20439;-49
2022/02/28 04:44:07;;;;;;;23.17;11.70;;;2.10;99.90;;;;;;5077943;28;20470;-49
2022/02/28 04:46:34;;;;;;;22.80;10.40;;;2.10;99.90;;;;;;5077329;28;21209;-61
2022/02/28 04:49:03;;;;;;;25.93;11.00;;;2.10;99.90;;;;;;5076957;28;20466;-53
2022/02/28 04:51:29;;;;;;;20.90;8.63;;;2.10;99.90;;;;;;5077293;28;20435;-50
2022/02/28 04:53:56;;;;;;;25.83;12.10;;;2.10;99.90;;;;;;5077773;28;20490;-50
2022/02/28 04:56:24;;;;;;;23.80;10.10;;;2.20;99.90;;;;;;5077960;28;20457;-53
2022/02/28 04:58:51;;;;;;;21.60;9.30;;;2.20;99.90;;;;;;5077373;28;20431;-51
2022/02/28 05:01:18;;;;;;;19.27;9.70;;;2.20;99.90;;;;;;5077270;28;20519;-52
2022/02/28 05:03:45;;;;;;;27.67;11.83;;;2.10;99.90;;;;;;5077346;28;20442;-57
2022/02/28 05:06:12;;;;;;;21.60;11.00;;;2.00;99.90;;;;;;5076878;28;20457;-51
2022/02/28 05:08:38;;;;;;;21.43;10.20;;;2.10;99.90;;;;;;5076887;28;20453;-51
2022/02/28 05:11:05;;;;;;;21.13;10.40;;;2.10;99.90;;;;;;5076985;28;20431;-52
2022/02/28 05:13:35;;;;;;;27.03;11.43;;;2.10;99.90;;;;;;5076727;28;20459;-55
2022/02/28 05:16:02;;;;;;;27.93;10.13;;;2.10;99.90;;;;;;5077431;28;20427;-56
2022/02/28 05:18:28;;;;;;;22.60;11.63;;;2.10;99.90;;;;;;5077362;28;20469;-50
2022/02/28 05:20:55;;;;;;;16.87;9.47;;;2.10;99.90;;;;;;5077470;28;20544;-51
2022/02/28 05:23:22;;;;;;;23.53;10.97;;;2.10;99.90;;;;;;5077187;28;20458;-51
2022/02/28 05:25:49;;;;;;;26.13;11.30;;;2.10;99.90;;;;;;5077089;28;20457;-50
2022/02/28 05:28:15;;;;;;;26.50;14.90;;;2.00;99.90;;;;;;5076407;28;20489;-52
2022/02/28 05:30:47;;;;;;;22.50;9.00;;;2.00;99.90;;;;;;5075974;28;20443;-46
2022/02/28 05:33:14;;;;;;;21.10;10.90;;;2.00;99.90;;;;;;5076363;28;20538;-53
2022/02/28 05:35:42;;;;;;;23.43;9.63;;;1.90;99.90;;;;;;5076390;28;20501;-54
2022/02/28 05:38:09;;;;;;;28.47;12.73;;;2.00;99.90;;;;;;5076557;28;20470;-50
2022/02/28 05:40:36;;;;;;;38.03;12.50;;;2.00;99.90;;;;;;5075938;28;20527;-47
2022/02/28 05:43:02;;;;;;;29.73;13.70;;;2.00;99.90;;;;;;5075944;28;20423;-51
2022/02/28 05:45:29;;;;;;;27.60;12.90;;;2.00;99.90;;;;;;5076121;28;20440;-53
2022/02/28 05:47:57;;;;;;;34.87;13.77;;;2.20;99.90;;;;;;5075878;28;20435;-53
2022/02/28 05:50:24;;;;;;;23.93;12.70;;;2.10;99.90;;;;;;5075740;28;20497;-52
2022/02/28 05:52:50;;;;;;;20.80;10.70;;;2.10;99.90;;;;;;5076038;28;20475;-52
2022/02/28 05:55:17;;;;;;;25.47;10.83;;;2.20;99.90;;;;;;5076317;28;20404;-52
2022/02/28 05:57:44;;;;;;;23.97;10.73;;;2.20;99.90;;;;;;5076120;28;20455;-53
2022/02/28 06:00:11;;;;;;;24.97;12.80;;;2.20;99.90;;;;;;5076118;28;20471;-53
2022/02/28 06:02:38;;;;;;;27.50;12.23;;;2.20;99.90;;;;;;5076193;28;20443;-51
2022/02/28 06:05:07;;;;;;;34.90;15.20;;;2.20;99.90;;;;;;5076306;28;20460;-48
2022/02/28 06:07:33;;;;;;;24.80;11.73;;;2.20;99.90;;;;;;5075871;28;20427;-55
2022/02/28 06:10:00;;;;;;;30.77;12.20;;;2.20;99.90;;;;;;5076102;28;20451;-52
2022/02/28 06:12:27;;;;;;;27.30;11.47;;;2.20;99.90;;;;;;5076624;28;20451;-51
2022/02/28 06:14:54;;;;;;;27.03;12.37;;;2.20;99.90;;;;;;5076347;28;20443;-53
2022/02/28 06:17:20;;;;;;;28.63;11.60;;;2.30;99.90;;;;;;5076660;28;20494;-50
2022/02/28 06:19:48;;;;;;;30.40;13.50;;;2.30;99.90;;;;;;5076290;28;20475;-54
2022/02/28 06:22:17;;;;;;;34.80;13.03;;;2.30;99.90;;;;;;5075793;28;20471;-57
2022/02/28 06:24:43;;;;;;;30.57;11.50;;;2.30;99.90;;;;;;5076396;28;20428;-58
2022/02/28 06:27:10;;;;;;;32.90;12.10;;;2.30;99.90;;;;;;5076359;28;20858;-54
2022/02/28 06:29:37;;;;;;;29.03;14.73;;;2.30;99.90;;;;;;5075976;28;20523;-55
2022/02/28 06:32:04;;;;;;;27.83;12.60;;;2.30;99.90;;;;;;5076451;28;20449;-54
2022/02/28 06:34:31;;;;;;;27.23;12.00;;;2.30;99.90;;;;;;5076030;28;20432;-51
2022/02/28 06:36:58;;;;;;;27.20;14.50;;;2.30;99.90;;;;;;5076161;28;20467;-52
2022/02/28 06:39:37;;;;;;;28.00;13.10;;;2.30;99.90;;;;;;5075168;28;20497;-52
2022/02/28 06:42:04;;;;;;;24.03;12.40;;;2.40;99.90;;;;;;5076131;28;20451;-57
2022/02/28 06:44:31;;;;;;;25.57;11.30;;;2.40;99.90;;;;;;5076050;28;20451;-54
2022/02/28 06:46:58;;;;;;;32.73;10.37;;;2.50;99.90;;;;;;5075087;28;20480;-44
2022/02/28 06:49:25;;;;;;;20.77;11.57;;;2.50;99.90;;;;;;5075645;28;20443;-47
2022/02/28 06:51:51;;;;;;;27.73;9.20;;;2.60;99.90;;;;;;5074637;28;20447;-48
2022/02/28 06:54:18;;;;;;;25.13;12.17;;;2.60;99.90;;;;;;5074448;28;20439;-58
2022/02/28 06:56:46;;;;;;;25.53;13.77;;;2.60;99.90;;;;;;5074670;28;20451;-58
2022/02/28 06:59:13;;;;;;;26.13;10.90;;;2.70;99.90;;;;;;5074855;28;20482;-58
2022/02/28 07:01:40;;;;;;;27.93;11.10;;;2.80;99.90;;;;;;5074889;28;20447;-59
2022/02/28 07:04:07;;;;;;;19.33;10.33;;;2.90;99.90;;;;;;5075541;28;20443;-55
2022/02/28 07:06:35;;;;;;;28.00;10.80;;;2.90;99.90;;;;;;5075044;28;20450;-57
2022/02/28 07:09:02;;;;;;;21.87;9.63;;;2.90;99.90;;;;;;5075141;28;20468;-56
2022/02/28 07:11:30;;;;;;;23.73;11.50;;;2.90;99.90;;;;;;5075202;28;20423;-57
2022/02/28 07:14:00;;;;;;;29.10;12.33;;;2.90;99.90;;;;;;5074834;28;20462;-53
2022/02/28 07:16:30;;;;;;;30.93;15.47;;;2.80;99.90;;;;;;5074239;28;20420;-60
2022/02/28 07:18:56;;;;;;;34.37;14.33;;;2.70;99.90;;;;;;5074524;28;20422;-52
2022/02/28 07:21:23;;;;;;;28.13;12.63;;;2.70;99.90;;;;;;5074595;28;20506;-55
2022/02/28 07:23:50;;;;;;;26.03;11.73;;;2.70;99.90;;;;;;5074074;28;20481;-48
2022/02/28 07:26:16;;;;;;;35.20;14.93;;;2.70;99.90;;;;;;5071377;28;20470;-56
2022/02/28 07:28:43;;;;;;;25.30;14.37;;;2.70;99.90;;;;;;5052473;28;20451;-53
2022/02/28 07:31:11;;;;;;;30.13;12.43;;;2.70;99.90;;;;;;5052941;28;20458;-53
2022/02/28 07:33:37;;;;;;;31.17;16.23;;;2.80;99.90;;;;;;5054008;28;20593;-55
2022/02/28 07:36:06;;;;;;;29.90;13.23;;;2.90;99.90;;;;;;5054467;28;20457;-54
2022/02/28 07:38:34;;;;;;;29.37;13.60;;;2.90;99.90;;;;;;5053826;28;20820;-54
2022/02/28 07:41:01;;;;;;;32.00;13.53;;;3.00;99.90;;;;;;5054024;28;20486;-52
2022/02/28 07:43:27;;;;;;;25.00;12.13;;;3.00;99.90;;;;;;5053927;28;20443;-56
2022/02/28 07:45:54;;;;;;;28.67;11.40;;;3.00;99.90;;;;;;5054082;28;20477;-59
2022/02/28 07:48:22;;;;;;;22.07;12.40;;;3.00;99.90;;;;;;5054060;28;20458;-58
2022/02/28 07:50:49;;;;;;;28.80;11.93;;;3.00;99.90;;;;;;5053633;28;20474;-49
2022/02/28 07:53:16;;;;;;;20.47;10.40;;;2.90;99.90;;;;;;5053839;28;20454;-53
2022/02/28 07:55:42;;;;;;;27.40;12.53;;;2.90;99.90;;;;;;5053972;28;20447;-55
2022/02/28 07:58:09;;;;;;;27.10;11.57;;;2.90;99.90;;;;;;5054511;28;20521;-56
2022/02/28 08:00:36;;;;;;;25.70;13.73;;;2.90;99.90;;;;;;5056189;28;20540;-56
2022/02/28 08:03:03;;;;;;;27.67;13.40;;;2.90;99.90;;;;;;5056989;28;20486;-57
2022/02/28 08:05:31;;;;;;;29.57;14.23;;;3.00;99.90;;;;;;5057188;28;20440;-60
2022/02/28 08:07:57;;;;;;;21.83;11.77;;;3.00;99.90;;;;;;5057128;28;20451;-55
2022/02/28 08:10:24;;;;;;;24.37;12.57;;;3.10;99.90;;;;;;5056744;28;20536;-58
2022/02/28 08:12:51;;;;;;;32.37;12.47;;;3.10;99.90;;;;;;5056102;28;20494;-54
2022/02/28 08:15:18;;;;;;;16.87;10.63;;;3.20;99.90;;;;;;5056755;28;20653;-58
2022/02/28 08:17:45;;;;;;;21.37;12.43;;;3.20;99.90;;;;;;5056962;28;20472;-58
2022/02/28 08:20:12;;;;;;;15.97;9.23;;;3.30;99.90;;;;;;5057055;28;20479;-54
2022/02/28 08:22:40;;;;;;;25.43;11.17;;;3.30;99.90;;;;;;5057260;28;20892;-55
2022/02/28 08:25:08;;;;;;;32.50;12.30;;;3.30;99.90;;;;;;5056391;28;20439;-59
2022/02/28 08:27:35;;;;;;;29.57;12.93;;;3.40;99.90;;;;;;5056520;28;20978;-59
2022/02/28 08:30:01;;;;;;;26.23;13.47;;;3.50;99.90;;;;;;5057463;28;20462;-54
2022/02/28 08:32:28;;;;;;;19.40;9.57;;;3.50;99.90;;;;;;5056786;28;20432;-55
2022/02/28 08:34:55;;;;;;;24.13;11.37;;;3.40;99.90;;;;;;5056645;28;20470;-54
2022/02/28 08:37:21;;;;;;;21.60;12.60;;;3.40;99.90;;;;;;5056366;28;20521;-53
2022/02/28 08:39:49;;;;;;;28.80;11.30;;;3.50;99.90;;;;;;5056659;28;20501;-57
2022/02/28 08:42:16;;;;;;;23.10;10.00;;;3.70;99.90;;;;;;5056328;28;20432;-51
2022/02/28 08:44:44;;;;;;;19.43;10.30;;;3.80;99.90;;;;;;5056852;28;20812;-54
2022/02/28 08:47:10;;;;;;;26.67;12.87;;;3.90;99.90;;;;;;5056962;28;20774;-56
2022/02/28 08:49:37;;;;;;;19.30;8.03;;;3.90;99.90;;;;;;5056726;28;20439;-56
2022/02/28 08:52:06;;;;;;;17.63;11.00;;;3.90;99.90;;;;;;5056021;28;20474;-54
2022/02/28 08:54:32;;;;;;;27.27;10.70;;;4.00;99.90;;;;;;5055909;28;20768;-53
2022/02/28 08:57:03;;;;;;;16.20;8.60;;;4.10;99.90;;;;;;5055862;28;20446;-54
2022/02/28 08:59:30;;;;;;;18.47;10.30;;;4.20;99.90;;;;;;5056056;28;20436;-55
2022/02/28 09:01:57;;;;;;;17.53;10.40;;;4.30;99.90;;;;;;5055986;28;20483;-54
2022/02/28 09:04:24;;;;;;;29.80;12.90;;;4.40;99.90;;;;;;5055790;28;20447;-53
2022/02/28 09:06:52;;;;;;;21.53;10.90;;;4.30;99.90;;;;;;5055852;28;20427;-47
2022/02/28 09:09:19;;;;;;;19.87;11.27;;;4.20;99.90;;;;;;5054954;28;20462;-55
2022/02/28 09:11:46;;;;;;;17.97;9.33;;;4.30;99.90;;;;;;5055444;28;20498;-55
2022/02/28 09:14:14;;;;;;;22.60;9.17;;;4.10;99.90;;;;;;5055875;28;20439;-54
2022/02/28 09:16:40;;;;;;;18.13;7.67;;;4.10;99.90;;;;;;5055844;28;20970;-60
2022/02/28 09:19:07;;;;;;;15.53;8.60;;;4.00;99.90;;;;;;5056316;28;20435;-60
2022/02/28 09:21:34;;;;;;;21.97;11.00;;;4.10;99.90;;;;;;5056510;28;20792;-57
2022/02/28 09:24:00;;;;;;;24.23;11.70;;;4.20;99.90;;;;;;5055774;28;20440;-57
2022/02/28 09:26:27;;;;;;;19.50;8.13;;;4.40;99.90;;;;;;5055418;28;20525;-53
2022/02/28 09:28:54;;;;;;;18.73;10.30;;;4.60;99.90;;;;;;5056573;28;20447;-58
2022/02/28 09:31:22;;;;;;;25.30;12.87;;;4.60;99.90;;;;;;5055603;28;20503;-59
2022/02/28 09:33:49;;;;;;;21.77;11.13;;;4.80;99.90;;;;;;5040627;28;20818;-55
2022/02/28 09:36:16;;;;;;;30.43;12.30;;;5.00;99.90;;;;;;5055215;28;20797;-53
2022/02/28 09:38:43;;;;;;;26.70;11.87;;;5.20;99.90;;;;;;5055246;28;20486;-56
2022/02/28 09:41:11;;;;;;;28.93;14.17;;;5.40;99.90;;;;;;5054790;28;20829;-57
2022/02/28 09:43:39;;;;;;;28.53;12.63;;;5.60;99.90;;;;;;5055116;28;20459;-57
2022/02/28 09:46:06;;;;;;;22.27;12.70;;;5.70;99.90;;;;;;5055223;28;20748;-58
2022/02/28 09:48:34;;;;;;;23.13;12.20;;;6.10;99.90;;;;;;5055131;28;20440;-54
2022/02/28 09:51:01;;;;;;;26.70;14.40;;;7.00;99.90;;;;;;5054950;28;20463;-56
2022/02/28 09:53:28;;;;;;;25.30;13.30;;;7.40;99.90;;;;;;5055405;28;20443;-65
2022/02/28 09:55:55;;;;;;;26.47;14.23;;;7.60;99.90;;;;;;5055925;28;20451;-57
2022/02/28 09:58:27;;;;;;;21.47;11.30;;;7.60;99.90;;;;;;5055559;28;20471;-57
2022/02/28 10:01:01;;;;;;;22.30;11.60;;;8.00;99.90;;;;;;5056096;28;20482;-57
2022/02/28 10:03:29;;;;;;;32.60;11.90;;;9.00;99.90;;;;;;5055228;28;20443;-56
2022/02/28 10:06:01;;;;;;;17.10;9.87;;;10.00;99.90;;;;;;5054552;28;20999;-54
2022/02/28 10:08:40;;;;;;;20.37;10.90;;;11.00;99.90;;;;;;5054667;28;20469;-55
2022/02/28 10:11:08;;;;;;;24.13;15.20;;;11.80;99.90;;;;;;5054648;28;20427;-55
2022/02/28 10:13:39;;;;;;;28.63;14.03;;;12.50;97.60;;;;;;5052850;28;20530;-58
2022/02/28 10:16:05;;;;;;;22.20;12.43;;;13.40;92.40;;;;;;5055008;28;20552;-59
2022/02/28 10:18:32;;;;;;;28.63;14.87;;;13.60;87.80;;;;;;5054215;28;20463;-55
2022/02/28 10:21:00;;;;;;;22.83;13.47;;;13.90;85.00;;;;;;5053928;28;20549;-55
2022/02/28 10:23:27;;;;;;;21.57;12.80;;;14.10;82.40;;;;;;5054955;28;20467;-56
2022/02/28 10:25:54;;;;;;;17.57;12.53;;;14.20;77.90;;;;;;5054473;28;20463;-55
2022/02/28 10:28:22;;;;;;;18.23;10.83;;;14.30;77.80;;;;;;5055050;28;20451;-57
2022/02/28 10:30:55;;;;;;;20.60;10.40;;;14.50;76.30;;;;;;5054285;28;20475;-54
2022/02/28 10:33:36;;;;;;;18.60;9.67;;;14.60;72.10;;;;;;5054405;28;20447;-56
2022/02/28 10:36:13;;;;;;;23.53;10.77;;;14.70;71.00;;;;;;5055555;28;20443;-58
2022/02/28 10:38:44;;;;;;;15.43;8.10;;;14.60;70.30;;;;;;5054902;28;20533;-55
2022/02/28 10:41:20;;;;;;;16.90;10.07;;;14.80;68.00;;;;;;5054723;28;21006;-55
2022/02/28 10:43:48;;;;;;;18.33;9.47;;;14.60;66.70;;;;;;5059609;28;20466;-52
2022/02/28 10:46:20;;;;;;;17.17;10.37;;;14.50;67.70;;;;;;5056691;28;20467;-53
2022/02/28 10:49:15;;;;;;;20.80;9.47;;;14.40;66.70;;;;;;5054677;28;20807;-58
2022/02/28 10:51:52;;;;;;;17.43;9.53;;;14.40;66.50;;;;;;5023823;28;20532;-53
2022/02/28 10:54:21;;;;;;;16.03;9.43;;;14.20;66.20;;;;;;5053619;28;20504;-55
2022/02/28 10:56:51;;;;;;;18.13;9.93;;;14.10;66.90;;;;;;5053878;28;20462;-58
2022/02/28 10:59:19;;;;;;;22.77;11.87;;;14.10;68.40;;;;;;5037908;28;20451;-58
2022/02/28 11:01:46;;;;;;;19.60;11.70;;;14.00;68.20;;;;;;5054030;28;20483;-57
2022/02/28 11:04:14;;;;;;;24.20;12.57;;;13.80;67.00;;;;;;5054141;28;20475;-55
2022/02/28 11:06:43;;;;;;;19.37;10.90;;;13.60;69.40;;;;;;5054416;28;20455;-58
2022/02/28 11:09:11;;;;;;;23.83;13.20;;;13.30;70.50;;;;;;5054467;28;20912;-54
2022/02/28 11:11:38;;;;;;;27.03;14.67;;;13.20;71.10;;;;;;5053895;28;20448;-56
2022/02/28 11:14:06;;;;;;;17.80;10.07;;;13.00;71.40;;;;;;5055642;28;20443;-41
2022/02/28 11:16:33;;;;;;;15.33;8.80;;;12.70;69.90;;;;;;5077611;28;20439;-39
2022/02/28 11:19:02;;;;;;;18.10;9.63;;;12.30;70.60;;;;;;5077554;28;20428;-37
2022/02/28 11:21:33;;;;;;;19.30;8.77;;;12.10;71.80;;;;;;5077589;28;20485;-37
2022/02/28 11:24:03;;;;;;;16.87;8.30;;;11.90;72.80;;;;;;5077540;28;20466;-41
2022/02/28 11:26:33;;;;;;;14.30;7.97;;;11.80;73.60;;;;;;5077444;28;20430;-38
2022/02/28 11:29:00;;;;;;;18.47;8.80;;;11.60;74.70;;;;;;5077338;28;20466;-36
2022/02/28 11:31:37;;;;;;;15.63;7.87;;;11.20;76.50;;;;;;5078287;28;20415;-38
2022/02/28 11:34:15;;;;;;;18.73;9.10;;;10.90;77.10;;;;;;5081446;28;20532;-40
2022/02/28 11:36:52;;;;;;;15.40;6.73;;;10.60;80.60;;;;;;5081453;28;20421;-37
2022/02/28 11:39:27;;;;;;;16.10;8.27;;;10.30;81.00;;;;;;5080885;28;20494;-41
2022/02/28 11:41:55;;;;;;;10.37;6.70;;;10.10;82.40;;;;;;5080994;28;20493;-40
2022/02/28 11:44:22;;;;;;;10.60;5.80;;;9.80;83.20;;;;;;5081182;28;20419;-38
2022/02/28 11:46:58;;;;;;;12.90;6.60;;;9.60;83.80;;;;;;5080942;28;20415;-40
2022/02/28 11:49:25;;;;;;;11.10;5.60;;;9.40;83.90;;;;;;5061172;28;20418;-38
2022/02/28 11:51:54;;;;;;;16.63;8.53;;;9.20;88.90;;;;;;5069562;28;20419;-38
2022/02/28 11:54:28;;;;;;;11.70;6.03;;;8.80;89.50;;;;;;5080996;28;20451;-39
2022/02/28 11:57:04;;;;;;;11.73;6.43;;;8.60;91.20;;;;;;5080978;28;20419;-38
2022/02/28 11:59:34;;;;;;;12.53;6.60;;;8.30;91.40;;;;;;5080687;28;20435;-41
2022/02/28 12:02:03;;;;;;;13.43;6.23;;;8.20;92.80;;;;;;5080756;28;20443;-37
2022/02/28 12:04:40;;;;;;;11.43;5.73;;;8.10;93.70;;;;;;5080929;28;20416;-38
2022/02/28 12:07:24;;;;;;;18.40;6.97;;;8.10;94.40;;;;;;5080922;28;20443;-36
2022/02/28 12:10:18;;;;;;;10.90;6.40;;;8.20;95.90;;;;;;5080606;28;20419;-40
2022/02/28 12:12:58;;;;;;;13.80;6.13;;;8.10;95.20;;;;;;5080335;28;20457;-41
2022/02/28 12:15:25;;;;;;;12.73;7.20;;;8.20;95.50;;;;;;5065055;28;20415;-41
2022/02/28 12:18:08;;;;;;;10.07;5.43;;;8.20;95.60;;;;;;5080390;28;20420;-41
2022/02/28 12:20:46;;;;;;;10.40;5.77;;;8.20;95.10;;;;;;5080198;28;20442;-42
2022/02/28 12:23:26;;;;;;;12.33;6.00;;;8.20;95.20;;;;;;5080560;28;20465;-42
2022/02/28 12:26:03;;;;;;;8.00;4.47;;;8.20;95.20;;;;;;5080150;28;20427;-38
2022/02/28 12:28:44;;;;;;;13.90;6.00;;;8.20;94.60;;;;;;5080253;28;20438;-41
2022/02/28 12:31:18;;;;;;;8.63;5.47;;;8.20;95.00;;;;;;5080224;28;20443;-38
2022/02/28 12:34:00;;;;;;;8.87;4.73;;;8.20;94.80;;;;;;5080234;28;20417;-38
2022/02/28 12:36:29;;;;;;;9.40;4.87;;;8.30;95.40;;;;;;5080299;28;20495;-40
2022/02/28 12:38:59;;;;;;;8.80;4.53;;;8.30;95.10;;;;;;5080166;28;20525;-43
2022/02/28 12:41:29;;;;;;;11.23;6.30;;;8.30;94.20;;;;;;5080014;28;20499;-40
2022/02/28 12:43:59;;;;;;;10.23;4.03;;;8.30;92.30;;;;;;5079092;28;20470;-43
2022/02/28 12:46:29;;;;;;;11.10;4.50;;;8.20;91.80;;;;;;5080158;28;20412;-40